createdAt,value
2022-11-23T00:01:15.005Z,5.80
2022-11-23T00:03:41.510Z,5.63
2022-11-23T00:06:07.735Z,5.70
2022-11-23T00:08:33.928Z,5.80
2022-11-23T00:11:00.370Z,5.70
2022-11-23T00:13:26.926Z,6.00
2022-11-23T00:15:53.131Z,5.90
2022-11-23T00:18:19.373Z,5.70
2022-11-23T00:20:45.595Z,5.60
2022-11-23T00:23:11.863Z,5.90
2022-11-23T00:25:38.077Z,6.00
2022-11-23T00:28:04.375Z,5.80
2022-11-23T00:30:30.581Z,5.80
2022-11-23T00:32:56.914Z,5.70
2022-11-23T00:35:23.658Z,6.47
2022-11-23T00:37:49.866Z,5.90
2022-11-23T00:40:16.224Z,6.00
2022-11-23T00:42:42.470Z,6.00
2022-11-23T00:45:08.889Z,5.80
2022-11-23T00:47:35.093Z,6.10
2022-11-23T00:50:01.320Z,6.20
2022-11-23T00:52:27.516Z,6.00
2022-11-23T00:54:53.770Z,6.00
2022-11-23T00:57:20.025Z,6.10
2022-11-23T00:59:46.272Z,5.70
2022-11-23T01:02:12.469Z,6.13
2022-11-23T01:04:39.127Z,5.67
2022-11-23T01:07:05.665Z,5.83
2022-11-23T01:09:32.342Z,6.00
2022-11-23T01:11:58.756Z,5.90
2022-11-23T01:14:25.163Z,5.90
2022-11-23T01:16:51.444Z,5.60
2022-11-23T01:19:18.678Z,5.70
2022-11-23T01:21:44.951Z,5.77
2022-11-23T01:24:15.637Z,5.90
2022-11-23T01:26:42.014Z,5.90
2022-11-23T01:29:08.308Z,6.00
2022-11-23T01:31:34.539Z,5.90
2022-11-23T01:34:02.011Z,5.97
2022-11-23T01:36:29.582Z,6.20
2022-11-23T01:38:56.083Z,6.40
2022-11-23T01:41:23.336Z,5.80
2022-11-23T01:43:50.154Z,5.70
2022-11-23T01:46:16.449Z,5.83
2022-11-23T01:48:47.540Z,5.80
2022-11-23T01:51:33.668Z,5.70
2022-11-23T01:54:05.263Z,6.10
2022-11-23T01:56:35.418Z,6.00
2022-11-23T01:59:02.962Z,5.77
2022-11-23T02:01:29.435Z,5.70
2022-11-23T02:03:56.469Z,5.90
2022-11-23T02:06:22.997Z,5.80
2022-11-23T02:08:50.818Z,5.87
2022-11-23T02:11:17.096Z,6.00
2022-11-23T02:13:44.830Z,6.00
2022-11-23T02:16:11.551Z,5.87
2022-11-23T02:18:40.128Z,5.50
2022-11-23T02:21:06.507Z,5.80
2022-11-23T02:23:47.476Z,6.00
2022-11-23T02:26:37.045Z,6.00
2022-11-23T02:29:09.985Z,5.80
2022-11-23T02:31:36.603Z,5.93
2022-11-23T02:34:02.921Z,5.80
2022-11-23T02:36:37.546Z,5.90
2022-11-23T02:39:27.665Z,5.80
2022-11-23T02:41:54.802Z,5.77
2022-11-23T02:44:21.015Z,6.30
2022-11-23T02:46:49.372Z,5.80
2022-11-23T02:49:16.914Z,5.80
2022-11-23T02:52:13.294Z,5.70
2022-11-23T02:54:43.977Z,5.80
2022-11-23T02:59:54.378Z,5.70
2022-11-23T03:02:20.768Z,5.67
2022-11-23T03:04:46.989Z,5.80
2022-11-23T03:07:13.231Z,5.70
2022-11-23T03:09:39.497Z,5.80
2022-11-23T03:12:05.893Z,5.73
2022-11-23T03:14:32.195Z,5.70
2022-11-23T03:16:59.058Z,5.50
2022-11-23T03:19:25.309Z,5.80
2022-11-23T03:21:51.552Z,5.60
2022-11-23T03:24:17.868Z,5.63
2022-11-23T03:26:44.122Z,6.10
2022-11-23T03:29:10.466Z,6.70
2022-11-23T03:31:36.735Z,5.80
2022-11-23T03:34:02.997Z,6.00
2022-11-23T03:36:29.300Z,5.80
2022-11-23T03:38:55.533Z,5.90
2022-11-23T03:41:21.768Z,6.00
2022-11-23T03:43:48.065Z,6.03
2022-11-23T03:46:14.303Z,6.00
2022-11-23T03:48:40.538Z,6.03
2022-11-23T03:51:06.991Z,6.00
2022-11-23T03:53:33.274Z,5.97
2022-11-23T03:55:59.542Z,6.10
2022-11-23T03:58:25.878Z,5.73
2022-11-23T04:00:52.137Z,5.80
2022-11-23T04:03:18.457Z,5.73
2022-11-23T04:05:44.719Z,5.83
2022-11-23T04:08:11.003Z,5.87
2022-11-23T04:10:37.244Z,6.00
2022-11-23T04:13:03.497Z,6.00
2022-11-23T04:15:29.749Z,6.00
2022-11-23T04:17:55.976Z,6.20
2022-11-23T04:20:22.278Z,6.10
2022-11-23T04:22:48.527Z,6.00
2022-11-23T04:25:14.941Z,5.97
2022-11-23T04:27:41.192Z,5.53
2022-11-23T04:30:07.763Z,6.00
2022-11-23T04:32:33.983Z,6.10
2022-11-23T04:35:00.251Z,5.90
2022-11-23T04:37:26.529Z,5.90
2022-11-23T04:39:52.914Z,6.03
2022-11-23T04:42:19.177Z,6.20
2022-11-23T04:44:46.018Z,6.00
2022-11-23T04:47:12.373Z,6.50
2022-11-23T04:49:38.828Z,5.90
2022-11-23T04:52:05.430Z,5.90
2022-11-23T04:54:32.091Z,6.03
2022-11-23T04:56:58.347Z,6.07
2022-11-23T04:59:25.029Z,6.00
2022-11-23T05:01:52.222Z,6.10
2022-11-23T05:04:21.474Z,5.90
2022-11-23T05:06:47.723Z,5.90
2022-11-23T05:09:14.017Z,6.00
2022-11-23T05:11:40.677Z,6.10
2022-11-23T05:14:07.058Z,5.87
2022-11-23T05:16:33.577Z,6.17
2022-11-23T05:18:59.874Z,6.10
2022-11-23T05:21:26.117Z,6.20
2022-11-23T05:23:52.551Z,6.00
2022-11-23T05:26:18.824Z,6.10
2022-11-23T05:28:45.072Z,5.77
2022-11-23T05:31:11.363Z,6.10
2022-11-23T05:33:37.639Z,6.00
2022-11-23T05:36:03.978Z,5.90
2022-11-23T05:38:30.199Z,6.20
2022-11-23T05:40:56.435Z,5.60
2022-11-23T05:43:22.682Z,5.90
2022-11-23T05:45:48.910Z,6.10
2022-11-23T05:48:15.206Z,5.97
2022-11-23T05:50:41.491Z,5.90
2022-11-23T05:53:08.842Z,5.90
2022-11-23T05:55:35.181Z,5.80
2022-11-23T05:58:01.445Z,5.73
2022-11-23T06:00:27.734Z,5.83
2022-11-23T06:02:58.380Z,5.80
2022-11-23T06:05:24.640Z,5.90
2022-11-23T06:07:52.605Z,5.80
2022-11-23T06:10:18.937Z,6.00
2022-11-23T06:12:49.896Z,5.83
2022-11-23T06:15:16.348Z,6.13
2022-11-23T06:17:42.586Z,5.80
2022-11-23T06:20:09.122Z,5.97
2022-11-23T06:22:35.451Z,6.23
2022-11-23T06:25:01.797Z,5.90
2022-11-23T06:27:28.040Z,5.90
2022-11-23T06:29:54.275Z,6.07
2022-11-23T06:32:20.493Z,6.77
2022-11-23T06:34:47.047Z,6.00
2022-11-23T06:37:13.372Z,5.70
2022-11-23T06:39:40.509Z,5.80
2022-11-23T06:42:36.739Z,5.90
2022-11-23T06:44:53.009Z,5.80
2022-11-23T06:47:24.574Z,5.90
2022-11-23T06:49:52.395Z,5.80
2022-11-23T06:52:18.698Z,5.60
2022-11-23T06:54:44.951Z,6.00
2022-11-23T06:57:11.317Z,5.80
2022-11-23T06:59:41.846Z,5.83
2022-11-23T07:02:10.637Z,5.90
2022-11-23T07:04:36.883Z,5.90
2022-11-23T07:07:03.143Z,6.10
2022-11-23T07:09:29.801Z,6.67
2022-11-23T07:11:56.521Z,5.83
2022-11-23T07:14:22.753Z,5.90
2022-11-23T07:16:48.999Z,5.90
2022-11-23T07:19:15.324Z,5.90
2022-11-23T07:21:41.557Z,5.90
2022-11-23T07:24:07.882Z,5.80
2022-11-23T07:26:34.136Z,5.90
2022-11-23T07:29:00.978Z,5.90
2022-11-23T07:31:27.214Z,5.93
2022-11-23T07:33:53.445Z,5.90
2022-11-23T07:36:19.678Z,5.80
2022-11-23T07:38:45.923Z,5.90
2022-11-23T07:41:12.190Z,5.80
2022-11-23T07:43:38.425Z,5.83
2022-11-23T07:46:04.705Z,5.77
2022-11-23T07:48:36.108Z,5.80
2022-11-23T07:51:02.908Z,5.60
2022-11-23T07:53:29.291Z,5.80
2022-11-23T07:55:57.052Z,5.70
2022-11-23T07:58:23.301Z,6.10
2022-11-23T08:00:49.541Z,5.90
2022-11-23T08:03:31.149Z,6.00
2022-11-23T08:05:57.493Z,5.87
2022-11-23T08:08:24.241Z,5.87
2022-11-23T08:10:53.870Z,6.10
2022-11-23T08:13:21.219Z,5.90
2022-11-23T08:15:53.387Z,5.90
2022-11-23T08:18:21.195Z,6.00
2022-11-23T08:20:47.471Z,5.90
2022-11-23T08:23:13.797Z,5.90
2022-11-23T08:25:40.089Z,5.80
2022-11-23T08:28:06.369Z,6.00
2022-11-23T08:30:33.090Z,5.93
2022-11-23T08:32:59.703Z,5.90
2022-11-23T08:35:25.944Z,5.90
2022-11-23T08:37:52.182Z,6.00
2022-11-23T08:40:24.777Z,6.30
2022-11-23T08:42:51.501Z,6.00
2022-11-23T08:45:18.009Z,5.77
2022-11-23T08:47:44.308Z,6.37
2022-11-23T08:50:10.576Z,6.20
2022-11-23T08:52:36.853Z,6.00
2022-11-23T08:55:03.391Z,5.80
2022-11-23T08:57:29.636Z,6.07
2022-11-23T08:59:56.017Z,6.27
2022-11-23T09:02:22.238Z,6.00
2022-11-23T09:04:48.513Z,6.10
2022-11-23T09:07:14.945Z,6.07
2022-11-23T09:09:41.215Z,6.07
2022-11-23T09:12:07.540Z,6.20
2022-11-23T09:14:34.639Z,6.00
2022-11-23T09:17:01.901Z,6.00
2022-11-23T09:19:28.191Z,5.90
2022-11-23T09:21:54.442Z,6.23
2022-11-23T09:24:20.822Z,6.00
2022-11-23T09:26:47.123Z,5.80
2022-11-23T09:29:13.417Z,5.97
2022-11-23T09:31:39.662Z,5.90
2022-11-23T09:34:05.927Z,5.90
2022-11-23T09:36:32.370Z,5.80
2022-11-23T09:38:58.638Z,5.80
2022-11-23T09:41:40.213Z,5.80
2022-11-23T09:44:15.589Z,5.60
2022-11-23T09:46:54.121Z,5.90
2022-11-23T09:49:21.572Z,5.73
2022-11-23T09:51:48.581Z,5.50
2022-11-23T09:54:24.015Z,5.70
2022-11-23T09:56:51.543Z,5.77
2022-11-23T09:59:26.134Z,5.70
2022-11-23T10:01:52.429Z,5.77
2022-11-23T10:04:19.635Z,5.50
2022-11-23T10:06:49.054Z,5.43
2022-11-23T10:09:18.375Z,5.80
2022-11-23T10:11:57.143Z,5.70
2022-11-23T10:15:02.034Z,5.40
2022-11-23T10:17:37.388Z,5.60
2022-11-23T10:20:15.855Z,5.33
2022-11-23T10:22:51.324Z,5.40
2022-11-23T10:25:21.642Z,5.50
2022-11-23T10:27:49.069Z,5.43
2022-11-23T10:30:16.578Z,5.53
2022-11-23T10:33:05.215Z,5.50
2022-11-23T10:35:35.141Z,5.50
2022-11-23T10:38:21.168Z,5.30
2022-11-23T10:40:53.159Z,5.40
2022-11-23T10:43:22.609Z,5.40
2022-11-23T10:45:48.851Z,5.40
2022-11-23T10:48:33.214Z,5.20
2022-11-23T10:51:25.609Z,5.10
2022-11-23T10:54:05.373Z,5.33
2022-11-23T10:56:32.517Z,5.40
2022-11-23T10:58:58.785Z,5.30
2022-11-23T11:01:26.245Z,5.20
2022-11-23T11:03:53.489Z,5.20
2022-11-23T11:06:30.358Z,5.40
2022-11-23T11:08:59.560Z,5.20
2022-11-23T11:11:30.377Z,5.27
2022-11-23T11:14:05.240Z,4.97
2022-11-23T11:16:35.250Z,5.20
2022-11-23T11:19:21.348Z,5.20
2022-11-23T11:21:47.807Z,4.97
2022-11-23T11:24:16.846Z,5.00
2022-11-23T11:26:50.777Z,5.67
2022-11-23T11:29:32.669Z,5.17
2022-11-23T11:32:11.972Z,5.10
2022-11-23T11:34:44.832Z,5.13
2022-11-23T11:37:31.734Z,5.17
2022-11-23T11:40:16.912Z,5.30
2022-11-23T11:42:49.383Z,5.20
2022-11-23T11:45:24.833Z,5.13
2022-11-23T11:48:03.964Z,5.10
2022-11-23T11:50:33.946Z,5.10
2022-11-23T11:53:02.854Z,5.50
2022-11-23T11:55:48.330Z,5.43
2022-11-23T11:58:15.880Z,5.30
2022-11-23T12:00:45.279Z,5.20
2022-11-23T12:03:26.784Z,5.30
2022-11-23T12:05:54.510Z,6.23
2022-11-23T12:08:20.746Z,5.40
2022-11-23T12:10:54.092Z,5.30
2022-11-23T12:13:40.111Z,5.33
2022-11-23T12:16:15.067Z,5.40
2022-11-23T12:18:56.001Z,5.20
2022-11-23T12:21:36.667Z,5.30
2022-11-23T12:24:26.099Z,5.20
2022-11-23T12:27:01.036Z,5.30
2022-11-23T12:29:31.643Z,5.27
2022-11-23T12:32:21.365Z,5.67
2022-11-23T12:34:47.792Z,5.00
2022-11-23T12:37:22.632Z,5.30
2022-11-23T12:40:04.120Z,4.90
2022-11-23T12:42:36.575Z,4.70
2022-11-23T12:45:18.259Z,4.80
2022-11-23T12:47:48.785Z,4.90
2022-11-23T12:50:27.384Z,5.40
2022-11-23T12:53:12.621Z,5.00
2022-11-23T12:55:49.032Z,4.90
2022-11-23T12:58:18.283Z,4.90
2022-11-23T13:00:54.378Z,4.83
2022-11-23T13:03:39.241Z,4.97
2022-11-23T13:06:24.169Z,5.10
2022-11-23T13:09:14.029Z,5.20
2022-11-23T13:11:46.496Z,5.00
2022-11-23T13:14:18.688Z,4.93
2022-11-23T13:16:45.033Z,4.80
2022-11-23T13:19:30.319Z,4.80
2022-11-23T13:21:56.880Z,4.20
2022-11-23T13:24:26.132Z,4.03
2022-11-23T13:27:11.339Z,4.00
2022-11-23T13:29:49.969Z,3.70
2022-11-23T13:32:34.885Z,3.70
2022-11-23T13:35:01.437Z,3.50
2022-11-23T13:37:27.686Z,3.80
2022-11-23T13:39:57.470Z,3.90
2022-11-23T13:42:24.789Z,3.97
2022-11-23T13:45:14.120Z,3.93
2022-11-23T13:47:43.711Z,4.93
2022-11-23T13:50:18.947Z,4.10
2022-11-23T13:52:49.288Z,4.20
2022-11-23T13:55:20.364Z,4.27
2022-11-23T13:58:07.684Z,4.70
2022-11-23T14:00:53.528Z,4.50
2022-11-23T14:03:38.851Z,4.50
2022-11-23T14:06:13.899Z,4.53
2022-11-23T14:08:40.504Z,4.70
2022-11-23T14:11:12.010Z,4.63
2022-11-23T14:13:38.887Z,4.70
2022-11-23T14:16:05.929Z,4.80
2022-11-23T14:18:43.205Z,4.90
2022-11-23T14:21:18.666Z,4.80
2022-11-23T14:23:51.134Z,4.80
2022-11-23T14:26:26.029Z,4.80
2022-11-23T14:29:03.353Z,4.70
2022-11-23T14:31:39.291Z,4.80
2022-11-23T14:34:11.609Z,4.90
2022-11-23T14:37:07.247Z,4.87
2022-11-23T14:39:52.307Z,4.80
2022-11-23T14:42:20.647Z,4.90
2022-11-23T14:44:47.640Z,4.90
2022-11-23T14:47:14.184Z,4.90
2022-11-23T14:49:50.682Z,4.90
2022-11-23T14:52:19.753Z,4.90
2022-11-23T14:54:47.691Z,5.10
2022-11-23T14:57:14.032Z,5.00
2022-11-23T14:59:40.690Z,5.00
2022-11-23T15:02:18.510Z,5.10
2022-11-23T15:04:54.420Z,5.10
2022-11-23T15:07:23.342Z,5.00
2022-11-23T15:09:49.633Z,5.20
2022-11-23T15:12:25.118Z,5.27
2022-11-23T15:14:52.132Z,5.00
2022-11-23T15:17:21.889Z,5.20
2022-11-23T15:19:55.213Z,5.10
2022-11-23T15:22:21.486Z,5.10
2022-11-23T15:24:48.391Z,4.93
2022-11-23T15:27:16.835Z,5.00
2022-11-23T15:30:12.645Z,5.10
2022-11-23T15:32:38.995Z,5.07
2022-11-23T15:35:07.815Z,5.17
2022-11-23T15:37:38.494Z,5.00
2022-11-23T15:40:06.621Z,5.10
2022-11-23T15:42:32.895Z,5.20
2022-11-23T15:44:59.202Z,5.40
2022-11-23T15:47:28.043Z,5.33
2022-11-23T15:50:08.168Z,5.20
2022-11-23T15:52:35.786Z,5.10
2022-11-23T15:55:08.907Z,5.00
2022-11-23T15:57:36.824Z,5.20
2022-11-23T16:00:05.864Z,5.17
2022-11-23T16:02:32.354Z,5.40
2022-11-23T16:05:11.385Z,5.20
2022-11-23T16:07:50.095Z,5.17
2022-11-23T16:10:16.348Z,5.10
2022-11-23T16:12:49.991Z,5.30
2022-11-23T16:15:32.443Z,5.20
2022-11-23T16:17:59.568Z,5.30
2022-11-23T16:20:26.361Z,5.50
2022-11-23T16:22:53.190Z,5.53
2022-11-23T16:25:27.772Z,5.60
2022-11-23T16:28:00.731Z,5.60
2022-11-23T16:30:34.398Z,5.60
2022-11-23T16:33:00.757Z,5.60
2022-11-23T16:35:27.071Z,5.60
2022-11-23T16:37:53.477Z,5.50
2022-11-23T16:40:19.899Z,5.50
2022-11-23T16:42:50.576Z,5.70
2022-11-23T16:45:16.835Z,5.60
2022-11-23T16:48:03.406Z,5.60
2022-11-23T16:50:30.675Z,5.70
2022-11-23T16:52:57.260Z,5.90
2022-11-23T16:55:23.534Z,5.90
2022-11-23T16:57:49.793Z,5.87
2022-11-23T17:00:17.562Z,5.77
2022-11-23T17:02:43.951Z,5.80
2022-11-23T17:05:17.555Z,5.90
2022-11-23T17:07:44.268Z,5.63
2022-11-23T17:10:11.099Z,5.90
2022-11-23T17:12:37.884Z,6.13
2022-11-23T17:15:04.560Z,6.10
2022-11-23T17:17:30.847Z,6.10
2022-11-23T17:20:02.546Z,5.90
2022-11-23T17:22:30.302Z,6.00
2022-11-23T17:24:56.686Z,6.30
2022-11-23T17:27:24.177Z,5.90
2022-11-23T17:30:00.518Z,6.10
2022-11-23T17:32:26.832Z,6.10
2022-11-23T17:34:53.282Z,6.10
2022-11-23T17:37:21.029Z,6.00
2022-11-23T17:39:47.951Z,6.03
2022-11-23T17:42:14.546Z,6.20
2022-11-23T17:44:40.865Z,6.67
2022-11-23T17:47:07.408Z,6.23
2022-11-23T17:49:33.867Z,6.00
2022-11-23T17:52:00.334Z,6.13
2022-11-23T17:54:26.545Z,6.10
2022-11-23T17:56:52.896Z,6.20
2022-11-23T17:59:19.289Z,6.40
2022-11-23T18:01:45.652Z,5.90
2022-11-23T18:04:11.972Z,5.93
2022-11-23T18:06:38.387Z,6.00
2022-11-23T18:09:05.095Z,6.10
2022-11-23T18:11:31.427Z,6.60
2022-11-23T18:13:58.459Z,6.10
2022-11-23T18:16:24.772Z,6.10
2022-11-23T18:18:51.267Z,6.20
2022-11-23T18:21:17.984Z,6.10
2022-11-23T18:23:44.231Z,6.10
2022-11-23T18:26:18.076Z,6.20
2022-11-23T18:28:44.360Z,6.00
2022-11-23T18:31:10.745Z,6.27
2022-11-23T18:33:37.339Z,6.10
2022-11-23T18:36:05.554Z,6.10
2022-11-23T18:38:32.604Z,6.30
2022-11-23T18:40:58.891Z,6.20
2022-11-23T18:43:25.139Z,6.20
2022-11-23T18:45:51.389Z,6.30
2022-11-23T18:48:17.603Z,6.30
2022-11-23T18:50:43.945Z,6.30
2022-11-23T18:53:10.256Z,6.23
2022-11-23T18:55:36.544Z,6.10
2022-11-23T18:58:03.174Z,6.37
2022-11-23T19:00:29.456Z,6.27
2022-11-23T19:03:01.185Z,6.13
2022-11-23T19:05:28.449Z,6.40
2022-11-23T19:07:57.322Z,6.40
2022-11-23T19:10:23.627Z,6.00
2022-11-23T19:12:49.865Z,5.97
2022-11-23T19:15:16.120Z,6.10
2022-11-23T19:17:42.474Z,5.90
2022-11-23T19:20:09.768Z,6.20
2022-11-23T19:22:36.248Z,6.00
2022-11-23T19:25:02.566Z,6.00
2022-11-23T19:27:29.005Z,6.10
2022-11-23T19:29:55.227Z,5.90
2022-11-23T19:32:21.476Z,6.40
2022-11-23T19:34:48.103Z,6.77
2022-11-23T19:37:14.366Z,6.00
2022-11-23T19:39:40.605Z,6.10
2022-11-23T19:42:06.928Z,6.57
2022-11-23T19:44:33.167Z,6.10
2022-11-23T19:46:59.438Z,6.20
2022-11-23T19:49:25.698Z,6.10
2022-11-23T19:51:53.644Z,6.10
2022-11-23T19:54:19.989Z,6.37
2022-11-23T19:56:46.288Z,6.10
2022-11-23T19:59:12.584Z,6.20
2022-11-23T20:01:38.865Z,6.93
2022-11-23T20:04:08.577Z,6.13
2022-11-23T20:06:37.182Z,6.10
2022-11-23T20:09:07.589Z,6.23
2022-11-23T20:11:34.495Z,6.20
2022-11-23T20:14:01.471Z,6.40
2022-11-23T20:16:28.708Z,6.03
2022-11-23T20:18:57.043Z,6.20
2022-11-23T20:21:23.324Z,6.20
2022-11-23T20:23:53.985Z,6.10
2022-11-23T20:26:20.532Z,6.10
2022-11-23T20:28:50.096Z,6.30
2022-11-23T20:31:20.339Z,6.27
2022-11-23T20:33:47.097Z,6.30
2022-11-23T20:36:15.200Z,6.13
2022-11-23T20:38:41.904Z,6.10
2022-11-23T20:41:16.135Z,6.10
2022-11-23T20:43:42.623Z,6.20
2022-11-23T20:46:08.923Z,6.63
2022-11-23T20:48:35.742Z,6.30
2022-11-23T20:51:07.608Z,6.20
2022-11-23T20:53:36.660Z,6.33
2022-11-23T20:56:04.038Z,6.00
2022-11-23T20:58:30.615Z,6.30
2022-11-23T21:00:57.266Z,6.30
2022-11-23T21:03:23.570Z,6.20
2022-11-23T21:05:50.321Z,6.40
2022-11-23T21:08:25.392Z,6.30
2022-11-23T21:11:12.787Z,6.33
2022-11-23T21:13:57.591Z,6.00
2022-11-23T21:16:23.970Z,6.23
2022-11-23T21:18:51.562Z,6.20
2022-11-23T21:21:17.809Z,6.20
2022-11-23T21:23:47.106Z,6.17
2022-11-23T21:26:17.158Z,6.13
2022-11-23T21:28:43.394Z,6.30
2022-11-23T21:31:09.804Z,6.30
2022-11-23T21:33:36.915Z,6.20
2022-11-23T21:36:04.033Z,6.20
2022-11-23T21:38:35.038Z,6.37
2022-11-23T21:41:02.703Z,6.20
2022-11-23T21:43:31.000Z,6.00
2022-11-23T21:46:00.989Z,6.00
2022-11-23T21:48:27.766Z,6.17
2022-11-23T21:51:04.451Z,6.10
2022-11-23T21:53:30.995Z,6.10
2022-11-23T21:56:04.281Z,6.20
2022-11-23T21:58:30.709Z,6.10
2022-11-23T22:01:04.421Z,6.00
2022-11-23T22:03:31.693Z,6.10
2022-11-23T22:05:58.222Z,5.80
2022-11-23T22:08:29.219Z,5.80
2022-11-23T22:10:56.005Z,5.93
2022-11-23T22:13:22.327Z,6.17
2022-11-23T22:15:48.740Z,6.10
2022-11-23T22:18:15.066Z,5.93
2022-11-23T22:20:41.369Z,5.90
2022-11-23T22:23:07.753Z,6.00
2022-11-23T22:25:34.027Z,5.70
2022-11-23T22:28:00.514Z,5.70
2022-11-23T22:30:26.796Z,5.90
2022-11-23T22:32:53.040Z,5.80
2022-11-23T22:35:19.254Z,5.80
2022-11-23T22:37:45.538Z,5.83
2022-11-23T22:40:12.064Z,5.80
2022-11-23T22:42:38.328Z,5.80
2022-11-23T22:45:04.684Z,5.90
2022-11-23T22:47:30.917Z,6.00
2022-11-23T22:49:57.176Z,5.80
2022-11-23T22:52:23.418Z,5.90
2022-11-23T22:54:49.638Z,6.20
2022-11-23T22:57:15.879Z,6.00
2022-11-23T22:59:42.126Z,5.87
2022-11-23T23:02:08.373Z,6.03
2022-11-23T23:04:34.851Z,6.00
2022-11-23T23:07:01.364Z,6.00
2022-11-23T23:09:27.618Z,6.03
2022-11-23T23:11:53.880Z,8.30
2022-11-23T23:14:20.163Z,6.20
2022-11-23T23:16:46.446Z,6.60
2022-11-23T23:19:12.803Z,5.90
2022-11-23T23:21:39.034Z,6.20
2022-11-23T23:24:05.662Z,6.23
2022-11-23T23:26:32.041Z,5.90
2022-11-23T23:28:59.583Z,5.90
2022-11-23T23:31:26.508Z,6.00
2022-11-23T23:33:53.611Z,6.30
2022-11-23T23:36:21.442Z,5.97
2022-11-23T23:38:48.058Z,6.17
2022-11-23T23:41:14.688Z,5.90
2022-11-23T23:43:42.575Z,5.80
2022-11-23T23:46:10.107Z,6.00
2022-11-23T23:48:37.561Z,5.90
2022-11-23T23:51:07.520Z,6.07
2022-11-23T23:53:34.376Z,6.10
2022-11-23T23:56:02.381Z,6.10
2022-11-23T23:58:29.261Z,6.07
